Flight Track Log - Related Links

Times and Time Zones

All times are in EDT time to prevent confusion due to time zone crossing. See the BER6299 flight status page for this flight to view local times or setup timezone preferences in your user account.

Time Position Orientation Groundspeed Altitude Reporting Facility
EDT Latitude Longitude Course Direction KTS MPH feet Rate Location/Type
Fri 02:38:00 AM 52.3866 10.4512 167° South  Level Estimated
Fri 02:39:00 AM 52.2908 10.4857 168° South  Level Estimated
Fri 02:40:00 AM 52.1950 10.5201 168° South  Level Estimated
Fri 02:41:00 AM 52.0993 10.5543 168° South  Level Estimated
Fri 02:42:00 AM 52.0035 10.5884 168° South  Level Estimated
Fri 02:43:00 AM 51.9077 10.6224 168° South  Level Estimated
Fri 02:44:00 AM 51.8119 10.6562 168° South  Level Estimated
Fri 02:45:00 AM 51.7161 10.6898 168° South  Level Estimated
Fri 02:46:00 AM 51.6203 10.7233 168° South  Level Estimated
Fri 02:47:00 AM 51.5244 10.7567 168° South  Level Estimated
Fri 02:48:00 AM 51.4286 10.7899 168° South  Level Estimated
Fri 02:49:00 AM 51.3327 10.8230 168° South  Level Estimated
Fri 02:50:00 AM 51.2369 10.8560 168° South  Level Estimated
Fri 02:51:00 AM 51.1410 10.8888 168° South  Level Estimated
Fri 02:52:00 AM 51.0451 10.9214 168° South  Level Estimated
Fri 02:53:00 AM 50.9492 10.9540 168° South  Level Estimated
Fri 02:54:00 AM 50.8534 10.9864 168° South  Level Estimated
Fri 02:55:00 AM 50.7575 11.0187 168° South  Level Estimated
Fri 02:56:00 AM 50.6615 11.0508 168° South  Level Estimated
Fri 02:57:00 AM 50.5656 11.0828 168° South  Level Estimated
Fri 02:58:00 AM 50.4697 11.1147 168° South  Level Estimated
Fri 02:59:00 AM 50.3737 11.1465 168° South  Level Estimated
Fri 03:00:00 AM 50.2778 11.1781 168° South  Level Estimated
Fri 03:01:00 AM 50.1818 11.2096 168° South  Level Estimated
Fri 03:02:00 AM 50.0859 11.2410 168° South  Level Estimated
Fri 03:03:00 AM 49.9899 11.2722 168° South  Level Estimated
Fri 03:04:00 AM 49.8939 11.3033 168° South  Level Estimated
Fri 03:05:00 AM 49.7979 11.3343 168° South  Level Estimated
Fri 03:06:00 AM 49.7019 11.3652 168° South  Level Estimated
Fri 03:07:00 AM 49.6059 11.3960 168° South  Level Estimated
Fri 03:08:00 AM 49.5099 11.4266 168° South  Level Estimated
Fri 03:09:00 AM 49.4139 11.4571 168° South  Level Estimated
Fri 03:10:00 AM 49.3179 11.4875 168° South  Level Estimated
Fri 03:11:00 AM 49.2218 11.5178 168° South  Level Estimated
Fri 03:12:00 AM 49.1258 11.5479 168° South  Level Estimated
Fri 03:13:00 AM 49.0297 11.5780 168° South  Level Estimated
Fri 03:14:00 AM 48.9337 11.6079 168° South  Level Estimated
Fri 03:15:00 AM 48.8376 11.6377 168° South  Level Estimated
Fri 03:16:00 AM 48.7415 11.6674 168° South  Level Estimated
Fri 03:17:00 AM 48.6454 11.6970 169° South  Level Estimated
Fri 03:18:00 AM 48.5493 11.7265 169° South  Level Estimated
Fri 03:19:00 AM 48.4532 11.7558 169° South  Level Estimated
Fri 03:20:00 AM 48.3571 11.7851 169° South  Level Estimated
Fri 03:21:00 AM 48.3538 11.7861 169° South  Level Estimated
Fri 03:22:00 AM 48.3538 11.7861 318° Northwest  Level Estimated
Fri 03:23:00 AM 48.3538 11.7861 318° Northwest  Level Estimated
Fri 03:24:00 AM 48.3538 11.7861 318° Northwest  Level Estimated
Fri 03:25:00 AM 48.3538 11.7861 318° Northwest  Level Estimated
Fri 03:26:00 AM 48.3538 11.7861 318° Northwest  Level Estimated
Fri 03:27:00 AM 48.3538 11.7861 318° Northwest  Level Estimated
Fri 03:28:00 AM 48.3538 11.7861 318° Northwest  Level Estimated
Fri 03:29:00 AM 48.3538 11.7861 318° Northwest  Level Estimated
Fri 03:30:00 AM 48.3538 11.7861 318° Northwest  Level Estimated
Fri 03:31:00 AM 48.3538 11.7861 318° Northwest  Level Estimated
Fri 03:32:00 AM 48.3538 11.7861 318° Northwest  Level Estimated
Fri 03:33:00 AM 48.3538 11.7861 318° Northwest  Level Estimated
Fri 03:34:00 AM 48.3538 11.7861 318° Northwest  Level Estimated
Fri 03:35:00 AM 48.3538 11.7861 318° Northwest  Level Estimated
Fri 03:36:00 AM 48.3538 11.7861 318° Northwest  Level Estimated

Login

Don't have an account? Register now (free) for customized features, flight alerts, and more!